createdAt,value
2022-09-12T00:00:22.248Z,15.55
2022-09-12T00:01:26.443Z,15.59
2022-09-12T00:02:28.056Z,15.62
2022-09-12T00:03:29.521Z,15.65
2022-09-12T00:04:31.028Z,15.66
2022-09-12T00:05:32.499Z,15.68
2022-09-12T00:06:36.690Z,15.68
2022-09-12T00:07:38.196Z,15.62
2022-09-12T00:08:39.695Z,15.65
2022-09-12T00:09:41.198Z,15.66
2022-09-12T00:10:44.135Z,15.65
2022-09-12T00:11:47.067Z,15.68
2022-09-12T00:12:48.571Z,15.69
2022-09-12T00:13:50.072Z,15.69
2022-09-12T00:14:51.575Z,15.69
2022-09-12T00:15:53.017Z,15.71
2022-09-12T00:16:58.262Z,15.67
2022-09-12T00:17:59.764Z,15.65
2022-09-12T00:19:01.575Z,15.61
2022-09-12T00:20:07.987Z,15.64
2022-09-12T00:21:09.492Z,15.55
2022-09-12T00:22:10.994Z,15.55
2022-09-12T00:23:13.832Z,15.57
2022-09-12T00:24:15.433Z,15.59
2022-09-12T00:25:17.037Z,15.57
2022-09-12T00:26:19.769Z,15.57
2022-09-12T00:27:21.372Z,15.52
2022-09-12T00:28:22.878Z,15.50
2022-09-12T00:29:24.366Z,15.44
2022-09-12T00:30:25.882Z,15.41
2022-09-12T00:31:27.951Z,15.35
2022-09-12T00:32:29.497Z,15.29
2022-09-12T00:33:31.003Z,15.34
2022-09-12T00:34:32.506Z,15.36
2022-09-12T00:35:34.009Z,15.36
2022-09-12T00:36:35.491Z,15.33
2022-09-12T00:37:36.910Z,15.30
2022-09-12T00:38:38.635Z,15.28
2022-09-12T00:39:40.198Z,15.29
2022-09-12T00:40:42.544Z,15.31
2022-09-12T00:41:44.558Z,15.35
2022-09-12T00:42:46.061Z,15.36
2022-09-12T00:43:53.908Z,15.38
2022-09-12T00:44:55.411Z,15.40
2022-09-12T00:45:58.984Z,15.40
2022-09-12T00:47:14.074Z,15.37
2022-09-12T00:48:22.652Z,15.38
2022-09-12T00:49:29.149Z,15.40
2022-09-12T00:50:32.398Z,15.42
2022-09-12T00:51:37.070Z,15.42
2022-09-12T00:52:49.935Z,15.39
2022-09-12T00:53:53.609Z,15.38
2022-09-12T00:55:07.264Z,15.38
2022-09-12T00:56:08.886Z,15.37
2022-09-12T00:57:13.128Z,15.38
2022-09-12T00:58:32.747Z,15.37
2022-09-12T01:00:03.109Z,15.37
2022-09-12T01:01:04.711Z,15.35
2022-09-12T01:02:06.515Z,15.34
2022-09-12T01:03:12.530Z,15.32
2022-09-12T01:04:14.405Z,15.32
2022-09-12T01:05:16.455Z,15.31
2022-09-12T01:06:23.284Z,15.31
2022-09-12T01:07:24.985Z,15.31
2022-09-12T01:08:28.535Z,15.33
2022-09-12T01:09:29.964Z,15.35
2022-09-12T01:10:34.504Z,15.35
2022-09-12T01:11:39.185Z,15.30
2022-09-12T01:12:43.143Z,15.32
2022-09-12T01:13:45.771Z,15.31
2022-09-12T01:14:47.299Z,15.21
2022-09-12T01:15:48.772Z,15.13
2022-09-12T01:16:51.299Z,15.15
2022-09-12T01:18:10.814Z,15.15
2022-09-12T01:19:39.948Z,15.08
2022-09-12T01:20:46.136Z,15.06
2022-09-12T01:22:19.180Z,15.09
2022-09-12T01:23:55.576Z,15.13
2022-09-12T01:25:31.361Z,15.11
2022-09-12T01:27:01.358Z,15.12
2022-09-12T01:28:20.006Z,15.13
2022-09-12T01:29:46.160Z,15.12
2022-09-12T01:30:54.219Z,15.11
2022-09-12T01:32:21.345Z,15.10
2022-09-12T01:33:30.586Z,15.01
2022-09-12T01:34:58.698Z,14.94
2022-09-12T01:36:12.990Z,14.95
2022-09-12T01:37:25.651Z,14.95
2022-09-12T01:38:47.032Z,14.96
2022-09-12T01:40:03.599Z,14.98
2022-09-12T01:41:17.945Z,14.99
2022-09-12T01:42:40.839Z,14.96
2022-09-12T01:44:08.843Z,14.93
2022-09-12T01:45:21.808Z,14.93
2022-09-12T01:46:35.793Z,14.92
2022-09-12T01:47:41.168Z,14.95
2022-09-12T01:48:50.980Z,14.96
2022-09-12T01:49:58.106Z,15.01
2022-09-12T01:51:09.946Z,14.96
2022-09-12T01:52:19.943Z,14.98
2022-09-12T01:53:30.613Z,14.99
2022-09-12T01:54:38.911Z,14.97
2022-09-12T01:55:55.761Z,14.96
2022-09-12T01:57:01.667Z,14.99
2022-09-12T01:58:16.778Z,14.94
2022-09-12T01:59:25.651Z,14.91
2022-09-12T02:00:27.460Z,14.87
2022-09-12T02:01:32.880Z,14.86
2022-09-12T02:02:39.368Z,14.87
2022-09-12T02:03:54.994Z,14.80
2022-09-12T02:05:19.419Z,14.72
2022-09-12T02:06:26.959Z,14.73
2022-09-12T02:07:40.535Z,14.71
2022-09-12T02:08:51.556Z,14.69
2022-09-12T02:10:14.243Z,14.74
2022-09-12T02:11:16.041Z,14.70
2022-09-12T02:12:22.466Z,14.70
2022-09-12T02:13:44.128Z,14.66
2022-09-12T02:14:52.794Z,14.67
2022-09-12T02:15:58.808Z,14.67
2022-09-12T02:17:11.864Z,14.69
2022-09-12T02:18:16.028Z,14.73
2022-09-12T02:19:21.930Z,14.78
2022-09-12T02:20:47.050Z,14.76
2022-09-12T02:21:55.738Z,14.73
2022-09-12T02:22:58.169Z,14.78
2022-09-12T02:24:02.599Z,14.81
2022-09-12T02:25:06.286Z,14.68
2022-09-12T02:26:13.006Z,14.67
2022-09-12T02:27:19.626Z,14.69
2022-09-12T02:28:38.012Z,14.75
2022-09-12T02:29:39.927Z,14.78
2022-09-12T02:30:50.447Z,14.80
2022-09-12T02:31:59.815Z,14.82
2022-09-12T02:33:20.484Z,14.83
2022-09-12T02:34:42.117Z,14.86
2022-09-12T02:35:57.228Z,14.83
2022-09-12T02:37:20.015Z,14.86
2022-09-12T02:38:41.061Z,14.87
2022-09-12T02:39:45.366Z,14.85
2022-09-12T02:40:47.130Z,14.85
2022-09-12T02:41:52.438Z,14.84
2022-09-12T02:42:53.934Z,14.83
2022-09-12T02:43:55.844Z,14.87
2022-09-12T02:44:57.458Z,14.79
2022-09-12T02:45:59.160Z,14.70
2022-09-12T02:47:10.789Z,14.74
2022-09-12T02:48:18.055Z,14.81
2022-09-12T02:49:19.933Z,14.80
2022-09-12T02:50:21.743Z,14.81
2022-09-12T02:51:23.905Z,14.82
2022-09-12T02:52:27.545Z,14.83
2022-09-12T02:53:29.728Z,14.85
2022-09-12T02:54:31.324Z,14.82
2022-09-12T02:55:34.738Z,14.82
2022-09-12T02:56:40.174Z,14.73
2022-09-12T02:57:41.780Z,14.74
2022-09-12T02:58:43.587Z,14.81
2022-09-12T02:59:47.031Z,14.83
2022-09-12T03:01:11.102Z,14.84
2022-09-12T03:02:29.060Z,14.82
2022-09-12T03:03:50.792Z,14.80
2022-09-12T03:05:02.321Z,14.73
2022-09-12T03:06:30.026Z,14.66
2022-09-12T03:07:59.975Z,14.70
2022-09-12T03:09:25.321Z,14.74
2022-09-12T03:10:48.419Z,14.73
2022-09-12T03:12:06.476Z,14.62
2022-09-12T03:13:32.981Z,14.66
2022-09-12T03:14:59.338Z,14.70
2022-09-12T03:16:24.705Z,14.78
2022-09-12T03:17:30.693Z,14.80
2022-09-12T03:19:01.869Z,14.85
2022-09-12T03:20:11.559Z,14.82
2022-09-12T03:21:23.397Z,14.80
2022-09-12T03:22:55.190Z,14.80
2022-09-12T03:24:20.737Z,14.77
2022-09-12T03:25:30.941Z,14.65
2022-09-12T03:26:48.919Z,14.67
2022-09-12T03:28:01.154Z,14.70
2022-09-12T03:29:05.537Z,14.73
2022-09-12T03:30:08.983Z,14.72
2022-09-12T03:31:16.621Z,14.77
2022-09-12T03:32:18.129Z,14.80
2022-09-12T03:33:23.828Z,14.86
2022-09-12T03:34:26.864Z,14.87
2022-09-12T03:35:28.468Z,14.86
2022-09-12T03:36:30.584Z,14.87
2022-09-12T03:37:32.088Z,14.89
2022-09-12T03:38:33.590Z,14.90
2022-09-12T03:39:35.092Z,14.92
2022-09-12T03:40:38.003Z,14.95
2022-09-12T03:41:39.530Z,14.99
2022-09-12T03:42:41.545Z,14.99
2022-09-12T03:43:43.336Z,15.00
2022-09-12T03:44:44.754Z,14.99
2022-09-12T03:45:50.488Z,15.01
2022-09-12T03:46:52.056Z,15.03
2022-09-12T03:47:53.559Z,15.06
2022-09-12T03:48:55.165Z,15.07
2022-09-12T03:49:56.663Z,15.09
2022-09-12T03:51:06.660Z,15.13
2022-09-12T03:52:08.268Z,15.15
2022-09-12T03:53:11.309Z,15.15
2022-09-12T03:54:15.571Z,15.19
2022-09-12T03:55:17.280Z,15.21
2022-09-12T03:56:18.780Z,15.23
2022-09-12T03:57:20.280Z,15.23
2022-09-12T03:58:21.784Z,15.24
2022-09-12T03:59:23.182Z,15.22
2022-09-12T04:00:24.551Z,15.26
2022-09-12T04:01:26.143Z,15.24
2022-09-12T04:02:28.765Z,15.26
2022-09-12T04:03:30.219Z,15.28
2022-09-12T04:04:32.238Z,15.27
2022-09-12T04:05:34.146Z,15.27
2022-09-12T04:06:35.647Z,15.28
2022-09-12T04:07:37.152Z,15.31
2022-09-12T04:08:39.167Z,15.33
2022-09-12T04:09:40.769Z,15.30
2022-09-12T04:10:42.274Z,15.31
2022-09-12T04:11:43.673Z,15.31
2022-09-12T04:12:45.221Z,15.32
2022-09-12T04:13:47.594Z,15.30
2022-09-12T04:14:49.609Z,15.32
2022-09-12T04:15:58.279Z,15.32
2022-09-12T04:17:00.805Z,15.31
2022-09-12T04:18:05.717Z,15.30
2022-09-12T04:19:07.698Z,15.33
2022-09-12T04:20:09.350Z,15.32
2022-09-12T04:21:17.254Z,15.27
2022-09-12T04:22:18.723Z,15.26
2022-09-12T04:23:20.258Z,15.24
2022-09-12T04:24:21.731Z,15.22
2022-09-12T04:25:23.230Z,15.13
2022-09-12T04:26:24.767Z,15.01
2022-09-12T04:27:26.267Z,15.00
2022-09-12T04:28:29.100Z,15.01
2022-09-12T04:29:30.667Z,14.91
2022-09-12T04:30:33.877Z,14.88
2022-09-12T04:31:35.348Z,14.78
2022-09-12T04:32:36.847Z,14.80
2022-09-12T04:33:38.455Z,14.86
2022-09-12T04:34:39.961Z,14.82
2022-09-12T04:35:41.462Z,14.79
2022-09-12T04:36:42.962Z,14.79
2022-09-12T04:37:44.467Z,14.80
2022-09-12T04:38:47.598Z,14.79
2022-09-12T04:39:49.593Z,14.65
2022-09-12T04:40:51.122Z,14.57
2022-09-12T04:41:52.625Z,14.57
2022-09-12T04:42:54.025Z,14.51
2022-09-12T04:43:56.806Z,14.42
2022-09-12T04:44:58.257Z,14.46
2022-09-12T04:46:05.545Z,14.37
2022-09-12T04:47:07.095Z,14.36
2022-09-12T04:48:08.597Z,14.38
2022-09-12T04:49:11.634Z,14.40
2022-09-12T04:50:13.240Z,14.39
2022-09-12T04:51:20.269Z,14.45
2022-09-12T04:52:21.874Z,14.46
2022-09-12T04:53:23.274Z,14.43
2022-09-12T04:54:25.094Z,14.51
2022-09-12T04:55:26.689Z,14.55
2022-09-12T04:56:29.418Z,14.55
2022-09-12T04:57:30.821Z,14.58
2022-09-12T04:58:32.746Z,14.53
2022-09-12T04:59:34.077Z,14.53
2022-09-12T05:00:35.539Z,14.51
2022-09-12T05:01:37.199Z,14.50
2022-09-12T05:02:39.150Z,14.56
2022-09-12T05:03:42.392Z,14.56
2022-09-12T05:04:43.794Z,14.58
2022-09-12T05:05:45.167Z,14.58
2022-09-12T05:06:46.590Z,14.58
2022-09-12T05:07:47.990Z,14.64
2022-09-12T05:08:49.978Z,14.66
2022-09-12T05:09:51.310Z,14.67
2022-09-12T05:10:52.807Z,14.67
2022-09-12T05:12:09.697Z,14.62
2022-09-12T05:13:11.163Z,14.58
2022-09-12T05:14:12.665Z,14.56
2022-09-12T05:15:14.168Z,14.61
2022-09-12T05:16:18.052Z,14.64
2022-09-12T05:17:19.527Z,14.61
2022-09-12T05:18:21.026Z,14.61
2022-09-12T05:19:22.532Z,14.64
2022-09-12T05:20:24.035Z,14.71
2022-09-12T05:21:27.071Z,14.73
2022-09-12T05:22:28.576Z,14.75
2022-09-12T05:23:30.805Z,14.71
2022-09-12T05:24:32.398Z,14.72
2022-09-12T05:25:33.798Z,14.74
2022-09-12T05:26:35.133Z,14.77
2022-09-12T05:27:36.599Z,14.77
2022-09-12T05:28:38.712Z,14.77
2022-09-12T05:29:40.214Z,14.80
2022-09-12T05:30:41.631Z,14.86
2022-09-12T05:31:43.120Z,14.84
2022-09-12T05:32:44.619Z,14.85
2022-09-12T05:33:48.168Z,14.89
2022-09-12T05:34:49.569Z,14.83
2022-09-12T05:35:51.469Z,14.72
2022-09-12T05:36:52.791Z,14.68
2022-09-12T05:37:54.285Z,14.65
2022-09-12T05:38:56.193Z,14.57
2022-09-12T05:39:57.670Z,14.56
2022-09-12T05:41:12.356Z,14.53
2022-09-12T05:42:16.157Z,14.55
2022-09-12T05:43:18.069Z,14.55
2022-09-12T05:44:19.674Z,14.61
2022-09-12T05:45:21.177Z,14.67
2022-09-12T05:46:27.795Z,14.74
2022-09-12T05:47:29.297Z,14.78
2022-09-12T05:48:30.800Z,14.80
2022-09-12T05:49:32.302Z,14.85
2022-09-12T05:50:33.910Z,14.84
2022-09-12T05:51:37.969Z,14.84
2022-09-12T05:52:39.767Z,14.82
2022-09-12T05:53:41.690Z,14.78
2022-09-12T05:54:43.192Z,14.70
2022-09-12T05:55:44.695Z,14.74
2022-09-12T05:56:47.208Z,14.76
2022-09-12T05:57:49.031Z,14.75
2022-09-12T05:59:01.683Z,14.78
2022-09-12T06:00:04.765Z,14.80
2022-09-12T06:01:16.191Z,14.69
2022-09-12T06:02:17.805Z,14.70
2022-09-12T06:03:19.262Z,14.72
2022-09-12T06:04:20.870Z,14.77
2022-09-12T06:05:22.368Z,14.82
2022-09-12T06:06:25.508Z,14.83
2022-09-12T06:07:26.910Z,14.89
2022-09-12T06:08:28.242Z,14.94
2022-09-12T06:09:29.709Z,14.91
2022-09-12T06:10:31.214Z,14.96
2022-09-12T06:11:35.068Z,14.96
2022-09-12T06:12:36.573Z,15.02
2022-09-12T06:13:39.606Z,15.08
2022-09-12T06:14:41.109Z,15.07
2022-09-12T06:15:42.529Z,15.02
2022-09-12T06:16:44.373Z,15.02
2022-09-12T06:17:51.425Z,14.99
2022-09-12T06:18:56.127Z,15.02
2022-09-12T06:19:57.628Z,15.04
2022-09-12T06:21:02.987Z,15.09
2022-09-12T06:22:04.522Z,15.11
2022-09-12T06:23:06.741Z,15.11
2022-09-12T06:24:08.242Z,15.15
2022-09-12T06:25:09.746Z,15.15
2022-09-12T06:26:12.373Z,15.14
2022-09-12T06:27:13.823Z,15.15
2022-09-12T06:28:15.584Z,15.17
2022-09-12T06:29:17.132Z,15.16
2022-09-12T06:30:22.293Z,15.19
2022-09-12T06:31:30.937Z,15.16
2022-09-12T06:32:32.446Z,15.05
2022-09-12T06:33:35.174Z,14.98
2022-09-12T06:34:36.674Z,14.91
2022-09-12T06:35:38.790Z,14.91
2022-09-12T06:36:44.079Z,14.97
2022-09-12T06:37:45.582Z,15.08
2022-09-12T06:38:47.347Z,15.15
2022-09-12T06:39:48.883Z,15.12
2022-09-12T06:40:50.395Z,15.09
2022-09-12T06:41:52.307Z,15.06
2022-09-12T06:43:07.420Z,15.06
2022-09-12T06:44:09.787Z,15.16
2022-09-12T06:45:11.347Z,15.24
2022-09-12T06:46:12.885Z,15.29
2022-09-12T06:47:14.351Z,15.26
2022-09-12T06:48:15.855Z,15.18
2022-09-12T06:49:17.357Z,15.04
2022-09-12T06:50:18.859Z,15.03
2022-09-12T06:51:20.372Z,15.10
2022-09-12T06:52:21.864Z,15.11
2022-09-12T06:53:23.370Z,15.16
2022-09-12T06:54:24.848Z,15.09
2022-09-12T06:55:27.815Z,15.15
2022-09-12T06:56:29.508Z,15.24
2022-09-12T06:57:30.912Z,15.39
2022-09-12T06:58:33.963Z,15.53
2022-09-12T06:59:35.432Z,15.63
2022-09-12T07:00:36.852Z,15.69
2022-09-12T07:01:38.666Z,15.66
2022-09-12T07:02:40.198Z,15.57
2022-09-12T07:03:42.895Z,15.63
2022-09-12T07:04:44.296Z,15.65
2022-09-12T07:05:46.514Z,15.73
2022-09-12T07:06:48.016Z,15.78
2022-09-12T07:07:49.464Z,15.77
2022-09-12T07:08:51.023Z,15.73
2022-09-12T07:09:52.524Z,15.80
2022-09-12T07:10:54.026Z,15.84
2022-09-12T07:11:55.425Z,15.88
2022-09-12T07:12:56.930Z,15.89
2022-09-12T07:13:59.661Z,15.92
2022-09-12T07:15:01.163Z,15.95
2022-09-12T07:16:04.299Z,16.01
2022-09-12T07:17:05.809Z,16.01
2022-09-12T07:18:07.424Z,16.02
2022-09-12T07:19:09.630Z,16.09
2022-09-12T07:20:11.131Z,16.05
2022-09-12T07:21:14.578Z,15.98
2022-09-12T07:22:16.080Z,15.94
2022-09-12T07:23:17.584Z,16.00
2022-09-12T07:24:18.982Z,16.07
2022-09-12T07:25:20.320Z,16.11
2022-09-12T07:26:21.888Z,16.17
2022-09-12T07:27:23.497Z,16.24
2022-09-12T07:28:26.938Z,16.28
2022-09-12T07:29:37.515Z,16.34
2022-09-12T07:30:39.512Z,16.43
2022-09-12T07:31:41.063Z,16.42
2022-09-12T07:32:42.463Z,16.44
2022-09-12T07:33:44.115Z,16.54
2022-09-12T07:34:45.595Z,16.55
2022-09-12T07:35:47.280Z,16.62
2022-09-12T07:36:48.679Z,16.70
2022-09-12T07:37:50.002Z,16.84
2022-09-12T07:38:57.520Z,16.93
2022-09-12T07:39:59.331Z,17.07
2022-09-12T07:41:01.033Z,17.18
2022-09-12T07:42:02.534Z,17.33
2022-09-12T07:43:04.142Z,17.47
2022-09-12T07:44:05.584Z,17.60
2022-09-12T07:45:07.453Z,17.66
2022-09-12T07:46:09.755Z,17.58
2022-09-12T07:47:11.260Z,17.66
2022-09-12T07:48:12.676Z,17.68
2022-09-12T07:49:14.181Z,17.73
2022-09-12T07:50:15.683Z,17.74
2022-09-12T07:51:18.003Z,17.80
2022-09-12T07:52:19.422Z,17.80
2022-09-12T07:53:20.907Z,17.87
2022-09-12T07:54:22.715Z,17.80
2022-09-12T07:55:24.219Z,17.55
2022-09-12T07:56:30.193Z,17.52
2022-09-12T07:57:33.424Z,17.43
2022-09-12T07:58:36.504Z,17.52
2022-09-12T07:59:51.899Z,17.53
2022-09-12T08:00:54.170Z,17.55
2022-09-12T08:01:55.644Z,17.50
2022-09-12T08:02:57.198Z,17.42
2022-09-12T08:04:00.286Z,17.42
2022-09-12T08:05:01.689Z,17.37
2022-09-12T08:06:08.818Z,17.34
2022-09-12T08:07:10.318Z,17.27
2022-09-12T08:08:11.825Z,17.33
2022-09-12T08:09:13.285Z,17.41
2022-09-12T08:10:14.727Z,17.49
2022-09-12T08:11:17.968Z,17.52
2022-09-12T08:12:19.573Z,17.58
2022-09-12T08:13:20.973Z,17.59
2022-09-12T08:14:22.476Z,17.58
2022-09-12T08:15:23.980Z,17.53
2022-09-12T08:16:28.240Z,17.51
2022-09-12T08:17:29.672Z,17.52
2022-09-12T08:18:31.965Z,17.46
2022-09-12T08:19:33.467Z,17.56
2022-09-12T08:20:35.273Z,17.67
2022-09-12T08:21:36.673Z,17.66
2022-09-12T08:22:38.385Z,17.64
2022-09-12T08:23:40.088Z,17.65
2022-09-12T08:24:41.531Z,17.73
2022-09-12T08:25:42.994Z,17.57
2022-09-12T08:26:44.493Z,17.50
2022-09-12T08:27:46.254Z,17.50
2022-09-12T08:28:48.525Z,17.48
2022-09-12T08:29:49.968Z,17.52
2022-09-12T08:30:52.398Z,17.59
2022-09-12T08:31:57.186Z,17.78
2022-09-12T08:32:58.932Z,17.78
2022-09-12T08:34:00.335Z,17.84
2022-09-12T08:35:01.837Z,17.92
2022-09-12T08:36:10.916Z,18.05
2022-09-12T08:37:12.313Z,18.26
2022-09-12T08:38:13.816Z,18.46
2022-09-12T08:39:15.276Z,18.55
2022-09-12T08:40:17.375Z,18.61
2022-09-12T08:41:18.835Z,18.71
2022-09-12T08:43:03.715Z,18.96
2022-09-12T08:44:32.853Z,19.09
2022-09-12T08:45:51.980Z,19.12
2022-09-12T08:47:15.475Z,19.08
2022-09-12T08:48:16.945Z,19.02
2022-09-12T08:49:27.624Z,19.06
2022-09-12T08:50:29.083Z,18.95
2022-09-12T08:51:34.592Z,18.92
2022-09-12T08:52:57.160Z,18.95
2022-09-12T08:54:01.017Z,18.91
2022-09-12T08:55:03.726Z,18.84
2022-09-12T08:56:06.580Z,18.67
2022-09-12T08:57:10.546Z,18.53
2022-09-12T08:58:19.614Z,18.32
2022-09-12T08:59:21.129Z,18.18
2022-09-12T09:00:22.826Z,17.97
2022-09-12T09:01:31.636Z,17.97
2022-09-12T09:03:27.333Z,18.04
2022-09-12T09:04:51.449Z,18.01
2022-09-12T09:06:23.578Z,17.93
2022-09-12T09:08:01.892Z,18.00
2022-09-12T09:09:19.666Z,18.15
2022-09-12T09:10:48.394Z,18.16
2022-09-12T09:11:59.000Z,18.18
2022-09-12T09:13:14.371Z,18.00
2022-09-12T09:14:51.431Z,18.01
2022-09-12T09:16:03.057Z,18.28
2022-09-12T09:17:08.682Z,18.52
2022-09-12T09:18:31.450Z,18.71
2022-09-12T09:19:50.643Z,18.72
2022-09-12T09:21:02.080Z,18.86
2022-09-12T09:22:11.054Z,18.99
2022-09-12T09:23:47.996Z,19.08
2022-09-12T09:24:53.460Z,19.14
2022-09-12T09:25:59.981Z,19.02
2022-09-12T09:27:14.288Z,18.92
2022-09-12T09:28:42.484Z,18.79
2022-09-12T09:29:47.875Z,18.62
2022-09-12T09:30:50.034Z,18.57
2022-09-12T09:31:57.609Z,18.62
2022-09-12T09:33:02.100Z,18.54
2022-09-12T09:34:18.342Z,18.64
2022-09-12T09:35:45.635Z,18.51
2022-09-12T09:37:12.616Z,18.64
2022-09-12T09:38:32.539Z,18.81
2022-09-12T09:39:47.102Z,18.89
2022-09-12T09:40:51.303Z,19.04
2022-09-12T09:42:11.528Z,19.15
2022-09-12T09:43:22.757Z,19.21
2022-09-12T09:44:24.364Z,19.07
2022-09-12T09:45:25.860Z,19.03
2022-09-12T09:46:28.232Z,19.00
2022-09-12T09:47:29.804Z,19.05
2022-09-12T09:48:37.126Z,19.00
2022-09-12T09:49:38.940Z,18.99
2022-09-12T09:50:40.643Z,19.03
2022-09-12T09:51:42.963Z,19.09
2022-09-12T09:52:44.466Z,19.27
2022-09-12T09:53:54.140Z,19.34
2022-09-12T09:54:59.747Z,19.36
2022-09-12T09:56:05.553Z,19.33
2022-09-12T09:57:35.197Z,19.22
2022-09-12T09:58:37.212Z,19.10
2022-09-12T09:59:38.714Z,18.96
2022-09-12T10:00:40.629Z,18.95
2022-09-12T10:01:50.440Z,18.83
2022-09-12T10:03:13.457Z,18.75
2022-09-12T10:04:52.571Z,18.62
2022-09-12T10:05:59.189Z,18.59
2022-09-12T10:07:03.152Z,18.51
2022-09-12T10:08:07.113Z,18.50
2022-09-12T10:09:14.649Z,18.56
2022-09-12T10:10:19.526Z,18.66
2022-09-12T10:11:22.802Z,18.68
2022-09-12T10:12:28.471Z,18.66
2022-09-12T10:13:40.409Z,18.68
2022-09-12T10:14:42.012Z,18.73
2022-09-12T10:15:56.980Z,18.90
2022-09-12T10:16:58.627Z,18.99
2022-09-12T10:18:00.106Z,19.15
2022-09-12T10:19:03.884Z,19.22
2022-09-12T10:20:22.022Z,19.25
2022-09-12T10:21:42.604Z,19.16
2022-09-12T10:22:48.099Z,19.20
2022-09-12T10:23:57.998Z,19.16
2022-09-12T10:25:01.263Z,19.18
2022-09-12T10:26:08.773Z,19.03
2022-09-12T10:27:12.834Z,18.97
2022-09-12T10:28:24.974Z,18.78
2022-09-12T10:29:33.299Z,18.73
2022-09-12T10:30:35.709Z,18.70
2022-09-12T10:31:48.568Z,18.77
2022-09-12T10:32:50.945Z,18.81
2022-09-12T10:33:52.550Z,18.82
2022-09-12T10:34:57.532Z,18.88
2022-09-12T10:35:59.853Z,19.07
2022-09-12T10:37:16.503Z,19.34
2022-09-12T10:38:24.858Z,19.56
2022-09-12T10:39:26.975Z,19.77
2022-09-12T10:40:37.692Z,19.94
2022-09-12T10:41:41.300Z,20.04
2022-09-12T10:42:52.749Z,20.18
2022-09-12T10:44:07.371Z,20.28
2022-09-12T10:45:41.106Z,20.20
2022-09-12T10:46:42.714Z,20.05
2022-09-12T10:47:44.211Z,19.94
2022-09-12T10:48:50.328Z,19.88
2022-09-12T10:49:51.825Z,19.83
2022-09-12T10:50:53.323Z,19.75
2022-09-12T10:51:56.672Z,19.52
2022-09-12T10:53:14.653Z,19.35
2022-09-12T10:54:21.986Z,19.24
2022-09-12T10:55:30.482Z,19.09
2022-09-12T10:56:41.308Z,19.08
2022-09-12T10:58:06.404Z,18.96
2022-09-12T10:59:20.409Z,18.98
2022-09-12T11:00:21.983Z,19.13
2022-09-12T11:01:32.524Z,19.29
2022-09-12T11:02:56.825Z,19.51
2022-09-12T11:04:19.003Z,19.66
2022-09-12T11:05:41.277Z,19.54
2022-09-12T11:06:45.747Z,19.66
2022-09-12T11:07:56.972Z,19.78
2022-09-12T11:09:26.104Z,19.89
2022-09-12T11:10:37.443Z,19.88
2022-09-12T11:11:54.796Z,19.85
2022-09-12T11:13:04.893Z,19.87
2022-09-12T11:14:17.959Z,19.95
2022-09-12T11:15:48.957Z,19.94
2022-09-12T11:17:06.094Z,19.90
2022-09-12T11:18:27.044Z,19.96
2022-09-12T11:19:43.683Z,20.07
2022-09-12T11:21:02.375Z,20.24
2022-09-12T11:22:06.546Z,20.31
2022-09-12T11:23:18.076Z,20.31
2022-09-12T11:24:42.911Z,20.42
2022-09-12T11:25:47.956Z,20.50
2022-09-12T11:27:01.163Z,20.50
2022-09-12T11:28:26.715Z,20.31
2022-09-12T11:29:40.084Z,20.31
2022-09-12T11:31:07.434Z,20.41
2022-09-12T11:32:40.093Z,20.59
2022-09-12T11:33:44.930Z,20.77
2022-09-12T11:35:12.876Z,20.73
2022-09-12T11:36:40.172Z,20.57
2022-09-12T11:37:45.044Z,20.66
2022-09-12T11:38:52.078Z,20.76
2022-09-12T11:39:56.000Z,20.77
2022-09-12T11:41:07.259Z,20.63
2022-09-12T11:42:35.159Z,20.38
2022-09-12T11:44:10.845Z,20.18
2022-09-12T11:45:18.283Z,20.22
2022-09-12T11:46:27.834Z,20.22
2022-09-12T11:47:32.546Z,20.28
2022-09-12T11:48:57.788Z,20.22
2022-09-12T11:50:04.143Z,20.24
2022-09-12T11:51:15.530Z,20.36
2022-09-12T11:52:20.717Z,20.44
2022-09-12T11:53:25.247Z,20.44
2022-09-12T11:54:33.647Z,20.41
2022-09-12T11:55:56.640Z,20.35
2022-09-12T11:57:11.545Z,20.34
2022-09-12T11:58:13.257Z,20.29
2022-09-12T11:59:29.492Z,20.28
2022-09-12T12:00:36.624Z,20.40
2022-09-12T12:01:47.670Z,20.36
2022-09-12T12:03:26.307Z,20.37
2022-09-12T12:04:37.795Z,20.45
2022-09-12T12:05:57.565Z,20.33
2022-09-12T12:07:06.103Z,20.28
2022-09-12T12:08:08.220Z,20.23
2022-09-12T12:09:12.281Z,20.28
2022-09-12T12:10:37.938Z,20.30
2022-09-12T12:11:45.170Z,20.44
2022-09-12T12:12:47.488Z,20.38
2022-09-12T12:14:23.580Z,20.34
2022-09-12T12:15:27.141Z,20.26
2022-09-12T12:16:38.562Z,20.35
2022-09-12T12:17:40.251Z,20.48
2022-09-12T12:18:43.216Z,20.56
2022-09-12T12:19:47.172Z,20.59
2022-09-12T12:20:50.102Z,20.69
2022-09-12T12:21:52.523Z,20.78
2022-09-12T12:22:55.252Z,20.84
2022-09-12T12:24:02.788Z,20.99
2022-09-12T12:25:24.361Z,21.11
2022-09-12T12:26:39.430Z,21.10
2022-09-12T12:27:43.991Z,21.08
2022-09-12T12:28:45.510Z,21.02
2022-09-12T12:29:47.044Z,20.97
2022-09-12T12:30:54.755Z,20.91
2022-09-12T12:31:58.951Z,20.89
2022-09-12T12:33:00.966Z,20.98
2022-09-12T12:34:04.820Z,21.02
2022-09-12T12:35:41.527Z,20.92
2022-09-12T12:36:43.234Z,20.77
2022-09-12T12:37:52.026Z,20.63
2022-09-12T12:38:53.710Z,20.52
2022-09-12T12:39:58.581Z,20.44
2022-09-12T12:41:18.511Z,20.33
2022-09-12T12:42:35.277Z,20.47
2022-09-12T12:43:36.763Z,20.51
2022-09-12T12:44:44.101Z,20.37
2022-09-12T12:45:48.368Z,20.34
2022-09-12T12:47:15.350Z,20.40
2022-09-12T12:48:18.490Z,20.55
2022-09-12T12:49:28.383Z,20.66
2022-09-12T12:50:30.918Z,20.82
2022-09-12T12:51:53.583Z,20.97
2022-09-12T12:53:06.452Z,20.95
2022-09-12T12:54:28.223Z,20.85
2022-09-12T12:55:37.295Z,20.72
2022-09-12T12:56:41.665Z,20.63
2022-09-12T12:57:48.186Z,20.33
2022-09-12T12:58:49.683Z,20.24
2022-09-12T13:00:05.103Z,20.26
2022-09-12T13:01:09.572Z,20.25
2022-09-12T13:02:25.231Z,20.14
2022-09-12T13:03:33.352Z,20.10
2022-09-12T13:04:34.956Z,20.04
2022-09-12T13:05:51.400Z,20.10
2022-09-12T13:07:08.404Z,20.23
2022-09-12T13:08:26.539Z,20.34
2022-09-12T13:09:43.901Z,20.39
2022-09-12T13:10:58.809Z,20.54
2022-09-12T13:12:19.245Z,20.63
2022-09-12T13:13:27.810Z,20.66
2022-09-12T13:14:47.129Z,20.65
2022-09-12T13:15:51.439Z,20.58
2022-09-12T13:16:59.945Z,20.56
2022-09-12T13:18:04.406Z,20.53
2022-09-12T13:19:14.912Z,20.48
2022-09-12T13:20:28.343Z,20.44
2022-09-12T13:21:30.720Z,20.36
2022-09-12T13:22:46.856Z,20.32
2022-09-12T13:24:14.556Z,20.20
2022-09-12T13:25:33.148Z,20.19
2022-09-12T13:26:42.533Z,20.15
2022-09-12T13:28:05.049Z,20.12
2022-09-12T13:29:09.583Z,19.98
2022-09-12T13:30:15.395Z,19.98
2022-09-12T13:31:25.929Z,19.85
2022-09-12T13:32:27.448Z,19.87
2022-09-12T13:33:47.113Z,19.89
2022-09-12T13:35:07.751Z,19.96
2022-09-12T13:36:28.186Z,20.02
2022-09-12T13:37:58.956Z,19.99
2022-09-12T13:39:23.995Z,19.90
2022-09-12T13:41:01.592Z,19.85
2022-09-12T13:42:37.917Z,19.90
2022-09-12T13:43:45.047Z,19.90
2022-09-12T13:44:57.500Z,19.89
2022-09-12T13:45:59.202Z,19.82
2022-09-12T13:47:03.063Z,19.73
2022-09-12T13:48:06.818Z,19.63
2022-09-12T13:49:37.077Z,19.56
2022-09-12T13:50:49.324Z,19.55
2022-09-12T13:52:04.438Z,19.46
2022-09-12T13:53:12.078Z,19.44
2022-09-12T13:54:22.615Z,19.50
2022-09-12T13:55:30.946Z,19.50
2022-09-12T13:56:32.550Z,19.49
2022-09-12T13:57:37.124Z,19.49
2022-09-12T13:58:38.626Z,19.47
2022-09-12T13:59:41.561Z,19.43
2022-09-12T14:00:43.045Z,19.33
2022-09-12T14:01:48.001Z,19.30
2022-09-12T14:02:50.157Z,19.27
2022-09-12T14:03:58.820Z,19.27
2022-09-12T14:05:00.637Z,19.28
2022-09-12T14:06:02.647Z,19.26
2022-09-12T14:07:17.253Z,19.21
2022-09-12T14:08:18.994Z,19.13
2022-09-12T14:09:25.250Z,19.14
2022-09-12T14:10:31.920Z,19.08
2022-09-12T14:11:33.702Z,19.12
2022-09-12T14:12:40.394Z,19.16
2022-09-12T14:13:42.026Z,19.19
2022-09-12T14:14:47.213Z,19.20
2022-09-12T14:15:51.743Z,19.12
2022-09-12T14:16:54.001Z,19.08
2022-09-12T14:18:01.420Z,19.05
2022-09-12T14:19:03.048Z,19.01
2022-09-12T14:20:14.680Z,19.00
2022-09-12T14:21:22.025Z,19.01
2022-09-12T14:22:23.520Z,18.92
2022-09-12T14:23:29.933Z,18.91
2022-09-12T14:24:32.149Z,18.84
2022-09-12T14:25:39.797Z,18.81
2022-09-12T14:26:43.345Z,18.85
2022-09-12T14:27:53.033Z,18.78
2022-09-12T14:28:54.846Z,18.67